createdAt,value
2018-06-05T00:03:43.675Z,15.50
2018-06-05T00:06:12.192Z,15.40
2018-06-05T00:13:37.894Z,15.40
2018-06-05T00:16:06.938Z,15.40
2018-06-05T00:18:35.320Z,15.30
2018-06-05T00:21:03.687Z,15.30
2018-06-05T00:23:31.784Z,15.30
2018-06-05T00:26:00.023Z,15.30
2018-06-05T00:33:24.509Z,15.20
2018-06-05T00:35:53.337Z,15.10
2018-06-05T00:38:21.602Z,15.10
2018-06-05T00:45:51.489Z,14.90
2018-06-05T00:48:19.895Z,14.90
2018-06-05T00:50:48.226Z,14.90
2018-06-05T00:53:16.481Z,14.80
2018-06-05T00:55:44.753Z,14.80
2018-06-05T00:58:13.344Z,14.80
2018-06-05T01:00:41.806Z,14.80
2018-06-05T01:05:38.303Z,14.70
2018-06-05T01:08:06.804Z,14.70
2018-06-05T01:10:35.078Z,14.60
2018-06-05T01:13:03.261Z,14.60
2018-06-05T01:15:32.268Z,14.60
2018-06-05T01:18:00.701Z,14.60
2018-06-05T01:22:57.094Z,14.50
2018-06-05T01:27:53.382Z,14.50
2018-06-05T01:35:17.567Z,14.50
2018-06-05T01:37:45.657Z,14.50
2018-06-05T01:40:14.547Z,14.40
2018-06-05T01:42:43.069Z,14.40
2018-06-05T01:45:11.253Z,14.40
2018-06-05T01:50:07.660Z,14.30
2018-06-05T01:52:36.556Z,14.30
2018-06-05T02:00:01.136Z,14.20
2018-06-05T02:02:29.537Z,14.30
2018-06-05T02:12:22.754Z,14.10
2018-06-05T02:14:51.039Z,14.10
2018-06-05T02:19:47.617Z,14.10
2018-06-05T02:27:12.100Z,14.00
2018-06-05T02:29:40.497Z,14.00
2018-06-05T02:34:36.895Z,14.00
2018-06-05T02:39:33.416Z,14.10
2018-06-05T02:42:01.792Z,14.10
2018-06-05T02:46:58.182Z,14.20
2018-06-05T02:51:54.561Z,14.20
2018-06-05T02:54:22.935Z,14.20
2018-06-05T02:56:51.159Z,14.10
2018-06-05T03:01:48.279Z,14.10
2018-06-05T03:04:16.564Z,14.00
2018-06-05T03:11:41.526Z,14.00
2018-06-05T03:14:09.887Z,14.00
2018-06-05T03:16:38.149Z,14.00
2018-06-05T03:21:34.494Z,14.10
2018-06-05T03:24:02.860Z,14.20
2018-06-05T03:26:31.213Z,14.30
2018-06-05T03:28:59.640Z,14.30
2018-06-05T03:31:27.928Z,14.40
2018-06-05T03:33:56.145Z,14.50
2018-06-05T03:38:52.709Z,14.60
2018-06-05T03:41:21.119Z,14.70
2018-06-05T03:43:49.533Z,14.90
2018-06-05T03:48:45.922Z,15.10
2018-06-05T03:53:42.915Z,15.20
2018-06-05T03:56:11.135Z,15.30
2018-06-05T03:58:40.041Z,15.40
2018-06-05T04:01:09.245Z,15.50
2018-06-05T04:03:37.441Z,15.60
2018-06-05T04:06:05.828Z,15.70
2018-06-05T04:08:34.045Z,15.70
2018-06-05T04:11:02.260Z,15.80
2018-06-05T04:13:31.842Z,15.80
2018-06-05T04:16:00.139Z,15.90
2018-06-05T04:18:28.573Z,16.00
2018-06-05T04:20:56.746Z,16.10
2018-06-05T04:28:21.530Z,16.40
2018-06-05T04:30:49.932Z,16.30
2018-06-05T04:33:18.348Z,16.40
2018-06-05T04:40:43.338Z,16.60
2018-06-05T04:43:11.756Z,16.70
2018-06-05T04:45:39.994Z,16.70
2018-06-05T04:48:09.228Z,16.60
2018-06-05T04:50:37.647Z,16.60
2018-06-05T04:55:34.138Z,16.50
2018-06-05T05:00:30.933Z,16.40
2018-06-05T05:05:28.981Z,16.50
2018-06-05T05:07:57.364Z,16.60
2018-06-05T05:12:53.940Z,16.70
2018-06-05T05:15:22.242Z,16.80
2018-06-05T05:17:50.618Z,17.00
2018-06-05T05:20:19.161Z,17.10
2018-06-05T05:25:15.132Z,17.40
2018-06-05T05:30:15.509Z,17.60
2018-06-05T05:40:08.093Z,17.60
2018-06-05T05:47:35.839Z,17.70
2018-06-05T05:50:04.132Z,17.70
2018-06-05T05:52:32.475Z,17.60
2018-06-05T05:55:00.542Z,17.60
2018-06-05T05:59:56.834Z,17.70
2018-06-05T06:02:25.878Z,17.80
2018-06-05T06:04:54.341Z,17.90
2018-06-05T06:09:51.281Z,18.00
2018-06-05T06:12:19.833Z,18.00
2018-06-05T06:14:48.448Z,18.00
2018-06-05T06:17:16.844Z,17.90
2018-06-05T06:19:45.154Z,17.90
2018-06-05T06:24:42.548Z,17.90
2018-06-05T06:27:11.048Z,17.90
2018-06-05T06:29:39.271Z,17.80
2018-06-05T06:32:07.570Z,17.80
2018-06-05T06:34:35.864Z,17.80
2018-06-05T06:37:04.237Z,17.90
2018-06-05T06:39:32.326Z,17.90
2018-06-05T06:42:00.844Z,18.00
2018-06-05T06:44:29.157Z,18.00
2018-06-05T06:46:57.547Z,18.00
2018-06-05T06:51:53.831Z,18.10
2018-06-05T06:54:22.150Z,18.10
2018-06-05T06:56:50.442Z,18.20
2018-06-05T07:01:47.176Z,18.20
2018-06-05T07:04:15.445Z,18.20
2018-06-05T07:06:43.731Z,18.30
2018-06-05T07:09:12.073Z,18.30
2018-06-05T07:11:41.282Z,18.40
2018-06-05T07:14:09.660Z,18.60
2018-06-05T07:16:37.941Z,18.70
2018-06-05T07:19:06.232Z,18.60
2018-06-05T07:24:02.577Z,18.50
2018-06-05T07:26:31.031Z,18.40
2018-06-05T07:28:59.450Z,18.50
2018-06-05T07:31:28.345Z,18.40
2018-06-05T07:33:57.131Z,18.40
2018-06-05T07:36:26.210Z,18.40
2018-06-05T07:38:54.554Z,18.30
2018-06-05T07:46:18.655Z,18.20
2018-06-05T07:48:46.923Z,18.20
2018-06-05T07:53:43.456Z,18.20
2018-06-05T07:56:11.818Z,18.20
2018-06-05T08:01:12.001Z,18.20
2018-06-05T08:03:40.284Z,18.10
2018-06-05T08:08:36.761Z,18.10
2018-06-05T08:11:04.976Z,18.10
2018-06-05T08:16:01.684Z,18.00
2018-06-05T08:18:29.858Z,17.90
2018-06-05T08:20:57.834Z,17.90
2018-06-05T08:23:26.144Z,17.90
2018-06-05T08:25:54.880Z,18.00
2018-06-05T08:28:23.273Z,18.00
2018-06-05T08:30:51.537Z,18.10
2018-06-05T08:33:19.943Z,18.20
2018-06-05T08:35:48.372Z,18.20
2018-06-05T08:38:16.766Z,18.20
2018-06-05T08:40:45.272Z,18.30
2018-06-05T08:43:13.456Z,18.30
2018-06-05T08:48:09.929Z,18.40
2018-06-05T08:50:38.238Z,18.40
2018-06-05T08:53:06.557Z,18.40
2018-06-05T08:55:34.740Z,18.50
2018-06-05T09:02:59.748Z,18.80
2018-06-05T09:05:28.110Z,18.90
2018-06-05T09:07:56.397Z,19.00
2018-06-05T09:10:24.964Z,19.10
2018-06-05T09:12:53.369Z,19.30
2018-06-05T09:15:21.620Z,19.40
2018-06-05T09:25:14.826Z,19.20
2018-06-05T09:27:43.098Z,19.10
2018-06-05T09:30:11.484Z,19.10
2018-06-05T09:32:39.697Z,19.10
2018-06-05T09:35:07.889Z,19.20
2018-06-05T09:37:36.200Z,19.40
2018-06-05T09:42:32.500Z,19.70
2018-06-05T09:45:01.004Z,19.70
2018-06-05T09:47:29.300Z,19.70
2018-06-05T09:49:57.602Z,19.70
2018-06-05T09:52:25.988Z,19.80
2018-06-05T09:54:54.772Z,20.00
2018-06-05T09:57:23.187Z,20.10
2018-06-05T09:59:51.597Z,20.20
2018-06-05T10:04:47.994Z,20.30
2018-06-05T10:07:16.328Z,20.30
2018-06-05T10:09:44.584Z,20.40
2018-06-05T10:12:12.772Z,20.50
2018-06-05T10:17:09.279Z,20.40
2018-06-05T10:19:37.977Z,20.30
2018-06-05T10:27:02.552Z,20.50
2018-06-05T10:36:56.172Z,20.90
2018-06-05T10:39:24.585Z,21.10
2018-06-05T10:41:53.525Z,21.40
2018-06-05T10:44:21.861Z,21.80
2018-06-05T10:46:50.370Z,22.00
2018-06-05T10:49:18.590Z,22.00
2018-06-05T10:51:46.842Z,21.90
2018-06-05T10:54:14.962Z,21.70
2018-06-05T10:56:43.645Z,21.40
2018-06-05T10:59:11.833Z,21.10
2018-06-05T11:01:40.251Z,20.90
2018-06-05T11:06:36.540Z,20.80
2018-06-05T11:09:07.393Z,20.90
2018-06-05T11:14:04.636Z,21.40
2018-06-05T11:16:33.115Z,21.60
2018-06-05T11:23:58.195Z,21.90
2018-06-05T11:28:55.304Z,21.70
2018-06-05T11:31:23.818Z,21.50
2018-06-05T11:33:52.430Z,21.30
2018-06-05T11:38:48.933Z,21.10
2018-06-05T11:41:17.319Z,21.10
2018-06-05T11:43:46.341Z,21.20
2018-06-05T11:46:14.836Z,21.30
2018-06-05T11:48:43.731Z,21.40
2018-06-05T11:51:12.162Z,21.40
2018-06-05T11:53:40.535Z,21.40
2018-06-05T11:58:37.017Z,21.30
2018-06-05T12:01:05.956Z,21.40
2018-06-05T12:03:35.378Z,21.50
2018-06-05T12:06:03.864Z,21.50
2018-06-05T12:08:32.192Z,21.50
2018-06-05T12:11:00.978Z,21.40
2018-06-05T12:13:29.468Z,21.30
2018-06-05T12:15:58.089Z,21.30
2018-06-05T12:18:26.372Z,21.30
2018-06-05T12:25:51.483Z,21.80
2018-06-05T12:28:20.390Z,21.90
2018-06-05T12:33:16.812Z,22.20
2018-06-05T12:35:44.954Z,22.30
2018-06-05T12:38:13.162Z,22.40
2018-06-05T12:43:09.648Z,22.70
2018-06-05T12:48:06.261Z,22.80
2018-06-05T12:50:34.771Z,22.80
2018-06-05T12:53:03.364Z,22.70
2018-06-05T12:55:31.664Z,22.70
2018-06-05T12:58:00.297Z,22.60
2018-06-05T13:00:28.668Z,22.70
2018-06-05T13:02:56.944Z,22.80
2018-06-05T13:05:25.917Z,23.00
2018-06-05T13:07:54.784Z,23.00
2018-06-05T13:10:23.595Z,22.90
2018-06-05T13:12:51.688Z,22.80
2018-06-05T13:15:20.071Z,22.80
2018-06-05T13:20:16.430Z,22.70
2018-06-05T13:25:13.174Z,22.70
2018-06-05T13:27:41.778Z,22.60
2018-06-05T13:30:10.291Z,22.60
2018-06-05T13:32:38.498Z,22.60
2018-06-05T13:35:06.976Z,22.70
2018-06-05T13:37:35.512Z,22.60
2018-06-05T13:40:04.196Z,22.40
2018-06-05T13:42:33.002Z,22.40
2018-06-05T13:45:01.194Z,22.40
2018-06-05T13:47:29.455Z,22.40
2018-06-05T13:49:57.683Z,22.40
2018-06-05T13:54:54.481Z,22.50
2018-06-05T13:59:51.048Z,22.30
2018-06-05T14:02:19.591Z,22.20
2018-06-05T14:04:48.046Z,22.00
2018-06-05T14:07:16.368Z,21.90
2018-06-05T14:09:45.172Z,21.70
2018-06-05T14:14:41.573Z,21.30
2018-06-05T14:17:09.945Z,21.20
2018-06-05T14:19:38.362Z,21.10
2018-06-05T14:27:02.552Z,21.00
2018-06-05T14:29:30.568Z,21.10
2018-06-05T14:31:58.837Z,21.00
2018-06-05T14:34:27.235Z,21.00
2018-06-05T14:36:55.647Z,21.00
2018-06-05T14:39:24.433Z,21.00
2018-06-05T14:49:18.748Z,21.10
2018-06-05T14:54:15.321Z,21.30
2018-06-05T14:56:43.737Z,21.40
2018-06-05T14:59:12.756Z,21.50
2018-06-05T15:04:09.708Z,21.50
2018-06-05T15:06:38.075Z,21.60
2018-06-05T15:09:06.570Z,21.70
2018-06-05T15:11:34.967Z,21.90
2018-06-05T15:18:59.373Z,22.10
2018-06-05T15:21:27.612Z,22.10
2018-06-05T15:23:56.190Z,22.10
2018-06-05T15:26:24.474Z,22.10
2018-06-05T15:28:52.923Z,22.10
2018-06-05T15:31:21.239Z,22.10
2018-06-05T15:36:17.743Z,22.00
2018-06-05T15:38:45.911Z,21.90
2018-06-05T15:41:14.118Z,21.80
2018-06-05T15:43:42.447Z,21.80
2018-06-05T15:46:10.612Z,21.80
2018-06-05T15:48:38.837Z,21.70
2018-06-05T15:51:07.321Z,21.70
2018-06-05T15:53:35.701Z,21.70
2018-06-05T15:56:04.325Z,21.70
2018-06-05T15:58:32.818Z,21.70
2018-06-05T16:05:57.420Z,21.60
2018-06-05T16:08:25.913Z,21.50
2018-06-05T16:10:54.314Z,21.40
2018-06-05T16:13:22.620Z,21.30
2018-06-05T16:15:52.153Z,21.30
2018-06-05T16:18:20.541Z,21.20
2018-06-05T16:20:48.736Z,21.20
2018-06-05T16:23:17.020Z,21.10
2018-06-05T16:28:13.658Z,21.00
2018-06-05T16:30:42.042Z,21.00
2018-06-05T16:33:10.629Z,20.90
2018-06-05T16:35:39.044Z,20.80
2018-06-05T16:38:07.926Z,20.70
2018-06-05T16:43:04.541Z,20.50
2018-06-05T16:45:32.917Z,20.40
2018-06-05T16:52:57.456Z,20.20
2018-06-05T16:55:25.732Z,20.20
2018-06-05T16:57:54.121Z,20.20
2018-06-05T17:00:22.302Z,20.20
2018-06-05T17:02:50.459Z,20.20
2018-06-05T17:07:47.098Z,20.10
2018-06-05T17:10:15.368Z,20.10
2018-06-05T17:12:43.984Z,20.00
2018-06-05T17:15:12.296Z,19.90
2018-06-05T17:17:40.594Z,19.80
2018-06-05T17:20:08.991Z,19.80
2018-06-05T17:22:37.277Z,19.80
2018-06-05T17:27:34.288Z,19.70
2018-06-05T17:30:02.731Z,19.70
2018-06-05T17:32:31.056Z,19.70
2018-06-05T17:35:00.208Z,19.60
2018-06-05T17:39:56.594Z,19.40
2018-06-05T17:44:52.914Z,19.10
2018-06-05T17:47:21.699Z,19.00
2018-06-05T17:49:50.378Z,18.90
2018-06-05T17:52:18.605Z,18.80
2018-06-05T17:54:47.107Z,18.70
2018-06-05T17:57:15.500Z,18.60
2018-06-05T17:59:43.923Z,18.50
2018-06-05T18:02:12.222Z,18.30
2018-06-05T18:04:40.701Z,18.30
2018-06-05T18:07:09.615Z,18.20
2018-06-05T18:09:37.892Z,18.10
2018-06-05T18:14:33.973Z,18.00
2018-06-05T18:19:30.566Z,17.80
2018-06-05T18:24:27.198Z,17.70
2018-06-05T18:26:55.691Z,17.60
2018-06-05T18:29:24.194Z,17.60
2018-06-05T18:31:52.570Z,17.50
2018-06-05T18:36:49.079Z,17.40
2018-06-05T18:39:17.486Z,17.40
2018-06-05T18:41:46.184Z,17.30
2018-06-05T18:44:14.480Z,17.30
2018-06-05T18:46:42.669Z,17.20
2018-06-05T18:51:38.961Z,17.10
2018-06-05T18:56:35.440Z,17.00
2018-06-05T19:01:32.042Z,16.80
2018-06-05T19:04:00.568Z,16.70
2018-06-05T19:06:29.197Z,16.60
2018-06-05T19:08:58.248Z,16.50
2018-06-05T19:13:54.703Z,16.30
2018-06-05T19:16:22.832Z,16.20
2018-06-05T19:18:51.361Z,16.10
2018-06-05T19:21:19.849Z,16.00
2018-06-05T19:23:48.670Z,15.90
2018-06-05T19:26:17.037Z,15.80
2018-06-05T19:28:46.494Z,15.70
2018-06-05T19:31:14.895Z,15.60
2018-06-05T19:33:43.359Z,15.50
2018-06-05T19:36:11.991Z,15.40
2018-06-05T19:38:40.420Z,15.30
2018-06-05T19:41:09.715Z,15.20
2018-06-05T19:43:38.406Z,15.10
2018-06-05T19:48:35.675Z,15.00
2018-06-05T19:51:04.938Z,14.90
2018-06-05T19:56:01.934Z,14.80
2018-06-05T19:58:30.255Z,14.70
2018-06-05T20:00:58.753Z,14.70
2018-06-05T20:03:27.461Z,14.60
2018-06-05T20:05:56.002Z,14.60
2018-06-05T20:08:25.078Z,14.50
2018-06-05T20:10:54.906Z,14.40
2018-06-05T20:13:23.543Z,14.40
2018-06-05T20:15:51.918Z,14.30
2018-06-05T20:18:20.527Z,14.30
2018-06-05T20:20:51.333Z,14.20
2018-06-05T20:23:20.070Z,14.10
2018-06-05T20:28:16.920Z,14.10
2018-06-05T20:30:45.728Z,14.00
2018-06-05T20:35:43.265Z,14.00
2018-06-05T20:40:41.457Z,13.90
2018-06-05T20:43:09.957Z,13.80
2018-06-05T20:45:39.101Z,13.80
2018-06-05T20:48:08.348Z,13.80
2018-06-05T20:53:06.246Z,13.50
2018-06-05T20:55:35.290Z,13.50
2018-06-05T20:58:04.045Z,13.50
2018-06-05T21:00:33.659Z,13.40
2018-06-05T21:03:03.489Z,13.40
2018-06-05T21:05:32.691Z,13.30
2018-06-05T21:08:01.426Z,13.30
2018-06-05T21:10:32.014Z,13.30
2018-06-05T21:13:03.057Z,13.30
2018-06-05T21:15:32.320Z,13.30
2018-06-05T21:18:01.276Z,13.30
2018-06-05T21:20:31.009Z,13.30
2018-06-05T21:22:59.401Z,13.30
2018-06-05T21:25:27.741Z,13.30
2018-06-05T21:27:56.216Z,13.30
2018-06-05T21:30:24.702Z,13.30
2018-06-05T21:32:54.314Z,13.20
2018-06-05T21:35:22.778Z,13.20
2018-06-05T21:37:52.004Z,13.20
2018-06-05T21:40:20.712Z,13.20
2018-06-05T21:42:49.528Z,13.10
2018-06-05T21:45:17.914Z,13.20
2018-06-05T21:47:47.486Z,13.10
2018-06-05T21:50:16.058Z,13.10
2018-06-05T21:52:44.454Z,13.10
2018-06-05T21:57:42.379Z,13.10
2018-06-05T22:00:10.883Z,13.10
2018-06-05T22:02:39.471Z,13.00
2018-06-05T22:07:35.882Z,13.00
2018-06-05T22:10:04.271Z,13.00
2018-06-05T22:12:32.369Z,12.90
2018-06-05T22:15:01.119Z,12.90
2018-06-05T22:17:29.493Z,12.90
2018-06-05T22:19:58.651Z,12.90
2018-06-05T22:22:27.191Z,12.90
2018-06-05T22:24:55.502Z,12.80
2018-06-05T22:27:23.903Z,12.80
2018-06-05T22:29:52.389Z,12.80
2018-06-05T22:32:20.694Z,12.80
2018-06-05T22:34:49.170Z,12.70
2018-06-05T22:37:17.592Z,12.70
2018-06-05T22:39:45.842Z,12.70
2018-06-05T22:42:14.284Z,12.60
2018-06-05T22:44:42.678Z,12.60
2018-06-05T22:52:06.658Z,12.50
2018-06-05T22:54:35.052Z,12.50
2018-06-05T22:59:31.346Z,12.50
2018-06-05T23:01:59.874Z,12.50
2018-06-05T23:04:28.899Z,12.50
2018-06-05T23:06:57.470Z,12.50
2018-06-05T23:09:26.383Z,12.50
2018-06-05T23:11:54.587Z,12.50
2018-06-05T23:14:24.070Z,12.50
2018-06-05T23:16:52.371Z,12.50
2018-06-05T23:19:20.772Z,12.50
2018-06-05T23:21:49.084Z,12.50
2018-06-05T23:26:45.168Z,12.50
2018-06-05T23:31:41.851Z,12.50
2018-06-05T23:34:10.233Z,12.50
2018-06-05T23:36:38.976Z,12.50
2018-06-05T23:39:07.789Z,12.50
2018-06-05T23:41:36.082Z,12.50
2018-06-05T23:44:04.686Z,12.50
2018-06-05T23:46:32.971Z,12.50
2018-06-05T23:49:01.479Z,12.50
2018-06-05T23:53:57.834Z,12.40
2018-06-05T23:56:26.267Z,12.40
